createdAt,value
2022-10-03T00:01:51.207Z,9.33
2022-10-03T00:04:39.704Z,8.75
2022-10-03T00:07:16.757Z,10.00
2022-10-03T00:10:22.297Z,7.50
2022-10-03T00:12:55.169Z,9.00
2022-10-03T00:15:31.070Z,10.00
2022-10-03T00:18:26.618Z,5.75
2022-10-03T00:21:15.346Z,9.50
2022-10-03T00:24:00.783Z,9.00
2022-10-03T00:26:45.833Z,8.00
2022-10-03T00:29:17.737Z,8.00
2022-10-03T00:32:08.045Z,8.00
2022-10-03T00:34:53.049Z,7.50
2022-10-03T00:37:38.084Z,8.00
2022-10-03T00:40:20.215Z,8.00
2022-10-03T00:42:52.839Z,6.75
2022-10-03T00:45:45.344Z,8.67
2022-10-03T00:48:27.290Z,8.00
2022-10-03T00:50:59.829Z,7.00
2022-10-03T00:53:43.435Z,7.00
2022-10-03T00:56:24.547Z,7.00
2022-10-03T00:59:15.999Z,8.00
2022-10-03T01:01:49.277Z,8.00
2022-10-03T01:04:37.358Z,8.00
2022-10-03T01:07:23.287Z,7.75
2022-10-03T01:10:37.842Z,8.75
2022-10-03T01:13:46.991Z,7.50
2022-10-03T01:17:13.250Z,7.50
2022-10-03T01:20:38.229Z,8.00
2022-10-03T01:23:38.082Z,7.67
2022-10-03T01:26:28.037Z,8.00
2022-10-03T01:29:17.729Z,7.33
2022-10-03T01:31:50.597Z,6.33
2022-10-03T01:34:31.197Z,7.00
2022-10-03T01:37:06.418Z,5.00
2022-10-03T01:40:09.210Z,5.50
2022-10-03T01:42:53.715Z,7.75
2022-10-03T01:45:47.809Z,6.75
2022-10-03T01:48:22.778Z,7.00
2022-10-03T01:51:22.088Z,6.00
2022-10-03T01:53:56.644Z,7.25
2022-10-03T01:56:40.961Z,8.00
2022-10-03T01:59:14.711Z,7.50
2022-10-03T02:01:48.596Z,6.33
2022-10-03T02:04:38.103Z,6.33
2022-10-03T02:07:08.588Z,6.00
2022-10-03T02:09:44.479Z,6.00
2022-10-03T02:12:15.069Z,4.00
2022-10-03T02:14:58.672Z,6.33
2022-10-03T02:17:48.433Z,6.33
2022-10-03T02:20:24.157Z,6.33
2022-10-03T02:22:55.590Z,7.00
2022-10-03T02:25:56.130Z,7.75
2022-10-03T02:28:35.530Z,7.00
2022-10-03T02:31:21.233Z,7.00
2022-10-03T02:34:06.660Z,5.50
2022-10-03T02:36:39.346Z,6.33
2022-10-03T02:39:12.017Z,6.00
2022-10-03T02:41:59.797Z,7.00
2022-10-03T02:44:51.515Z,6.00
2022-10-03T02:47:39.651Z,6.67
2022-10-03T02:50:19.417Z,4.00
2022-10-03T02:53:27.734Z,6.00
2022-10-03T02:56:25.629Z,6.00
2022-10-03T02:59:13.593Z,6.00
2022-10-03T03:01:52.303Z,7.33
2022-10-03T03:04:37.638Z,7.00
2022-10-03T03:07:39.637Z,6.00
2022-10-03T03:10:45.417Z,7.00
2022-10-03T03:13:37.371Z,7.00
2022-10-03T03:16:23.687Z,3.00
2022-10-03T03:18:59.777Z,6.00
2022-10-03T03:21:55.731Z,6.33
2022-10-03T03:24:55.602Z,5.00
2022-10-03T03:27:22.564Z,6.00
2022-10-03T03:30:16.073Z,5.67
2022-10-03T03:33:01.619Z,6.67
2022-10-03T03:35:34.149Z,6.33
2022-10-03T03:38:30.507Z,6.00
2022-10-03T03:41:06.842Z,6.00
2022-10-03T03:43:39.319Z,6.00
2022-10-03T03:46:59.980Z,5.00
2022-10-03T03:50:02.441Z,6.00
2022-10-03T03:52:35.403Z,5.00
2022-10-03T03:55:27.327Z,6.00
2022-10-03T03:58:13.990Z,6.00
2022-10-03T04:00:45.815Z,6.00
2022-10-03T04:03:20.288Z,5.67
2022-10-03T04:06:06.130Z,7.00
2022-10-03T04:08:46.058Z,5.00
2022-10-03T04:11:33.638Z,6.33
2022-10-03T04:14:21.963Z,4.00
2022-10-03T04:17:24.283Z,6.00
2022-10-03T04:20:00.370Z,6.00
2022-10-03T04:23:00.701Z,5.67
2022-10-03T04:26:16.094Z,6.00
2022-10-03T04:28:52.119Z,5.00
2022-10-03T04:31:31.262Z,6.00
2022-10-03T04:34:04.230Z,6.00
2022-10-03T04:36:47.352Z,5.67
2022-10-03T04:39:37.933Z,5.00
2022-10-03T04:42:42.457Z,6.00
2022-10-03T04:45:29.195Z,6.00
2022-10-03T04:48:06.876Z,4.00
2022-10-03T04:50:38.688Z,6.00
2022-10-03T04:53:29.759Z,4.00
2022-10-03T04:56:38.743Z,5.67
2022-10-03T04:59:26.297Z,5.33
2022-10-03T05:01:56.184Z,5.33
2022-10-03T05:04:26.830Z,6.00
2022-10-03T05:07:07.502Z,5.67
2022-10-03T05:09:52.123Z,4.00
2022-10-03T05:12:22.555Z,6.00
2022-10-03T05:15:11.821Z,3.00
2022-10-03T05:18:12.240Z,6.00
2022-10-03T05:20:45.356Z,2.00
2022-10-03T05:23:50.382Z,5.00
2022-10-03T05:26:45.746Z,6.00
2022-10-03T05:29:21.428Z,4.67
2022-10-03T05:32:09.635Z,5.33
2022-10-03T05:35:15.433Z,4.00
2022-10-03T05:37:49.797Z,5.00
2022-10-03T05:40:22.118Z,5.00
2022-10-03T05:42:55.578Z,5.00
2022-10-03T05:45:30.547Z,4.00
2022-10-03T05:48:11.031Z,5.00
2022-10-03T05:51:01.718Z,5.00
2022-10-03T05:54:04.755Z,4.67
2022-10-03T05:56:40.845Z,1.33
2022-10-03T05:59:23.270Z,4.00
2022-10-03T06:02:02.344Z,3.00
2022-10-03T06:05:09.243Z,5.00
2022-10-03T06:08:15.264Z,5.00
2022-10-03T06:11:05.406Z,4.67
2022-10-03T06:13:34.862Z,5.00
2022-10-03T06:16:40.067Z,3.67
2022-10-03T06:19:19.128Z,4.67
2022-10-03T06:22:22.374Z,4.67
2022-10-03T06:25:31.047Z,3.00
2022-10-03T06:28:22.020Z,4.00
2022-10-03T06:31:02.732Z,4.00
2022-10-03T06:33:59.299Z,4.00
2022-10-03T06:36:55.604Z,5.00
2022-10-03T06:39:41.093Z,5.00
2022-10-03T06:42:11.177Z,4.00
2022-10-03T06:44:59.734Z,4.67
2022-10-03T06:47:48.008Z,4.00
2022-10-03T06:50:27.548Z,4.00
2022-10-03T06:53:18.847Z,5.00
2022-10-03T06:56:13.240Z,4.00
2022-10-03T06:58:59.438Z,4.00
2022-10-03T07:01:52.191Z,4.67
2022-10-03T07:04:44.921Z,5.00
2022-10-03T07:07:14.827Z,3.33
2022-10-03T07:10:09.776Z,5.00
2022-10-03T07:13:00.982Z,4.67
2022-10-03T07:16:21.099Z,4.67
2022-10-03T07:19:20.578Z,4.33
2022-10-03T07:22:24.675Z,3.00
2022-10-03T07:25:03.641Z,4.00
2022-10-03T07:28:15.303Z,4.00
2022-10-03T07:30:56.019Z,4.33
2022-10-03T07:33:59.662Z,4.00
2022-10-03T07:36:51.438Z,4.00
2022-10-03T07:39:55.721Z,4.00
2022-10-03T07:42:48.147Z,3.67
2022-10-03T07:45:34.782Z,3.33
2022-10-03T07:48:19.797Z,4.00
2022-10-03T07:50:51.508Z,4.33
2022-10-03T07:53:21.543Z,4.00
2022-10-03T07:56:17.869Z,3.00
2022-10-03T07:58:54.699Z,4.00
2022-10-03T08:01:34.069Z,4.00
2022-10-03T08:04:19.586Z,3.33
2022-10-03T08:07:21.386Z,3.00
2022-10-03T08:10:37.313Z,3.00
2022-10-03T08:13:31.179Z,3.00
2022-10-03T08:16:02.793Z,4.00
2022-10-03T08:18:54.161Z,4.00
2022-10-03T08:21:22.521Z,3.67
2022-10-03T08:24:10.377Z,3.00
2022-10-03T08:26:55.520Z,2.00
2022-10-03T08:29:48.196Z,4.00
2022-10-03T08:32:34.352Z,3.00
2022-10-03T08:35:19.618Z,4.00
2022-10-03T08:37:52.273Z,3.67
2022-10-03T08:40:53.882Z,3.00
2022-10-03T08:43:39.371Z,4.00
2022-10-03T08:46:21.483Z,3.00
2022-10-03T08:48:54.594Z,3.67
2022-10-03T08:51:41.481Z,4.00
2022-10-03T08:54:19.689Z,4.00
2022-10-03T08:57:45.333Z,4.67
2022-10-03T09:00:22.496Z,3.00
2022-10-03T09:03:33.972Z,3.33
2022-10-03T09:06:13.042Z,3.00
2022-10-03T09:09:11.453Z,3.00
2022-10-03T09:12:09.345Z,3.00
2022-10-03T09:14:46.590Z,3.00
2022-10-03T09:17:56.729Z,3.00
2022-10-03T09:20:54.475Z,4.00
2022-10-03T09:23:51.971Z,4.00
2022-10-03T09:26:55.922Z,3.00
2022-10-03T09:29:55.222Z,3.00
2022-10-03T09:32:32.485Z,3.00
2022-10-03T09:35:31.466Z,2.67
2022-10-03T09:38:01.621Z,3.00
2022-10-03T09:40:51.277Z,3.33
2022-10-03T09:43:45.219Z,3.00
2022-10-03T09:47:08.951Z,3.00
2022-10-03T09:50:09.784Z,4.00
2022-10-03T09:53:10.346Z,3.00
2022-10-03T09:55:40.787Z,3.00
2022-10-03T09:58:41.413Z,3.00
2022-10-03T10:01:30.061Z,3.00
2022-10-03T10:04:32.344Z,3.00
2022-10-03T10:07:40.395Z,3.00
2022-10-03T10:10:34.165Z,3.00
2022-10-03T10:13:16.198Z,3.67
2022-10-03T10:16:13.792Z,3.00
2022-10-03T10:19:02.209Z,3.00
2022-10-03T10:21:36.533Z,3.00
2022-10-03T10:24:40.801Z,3.00
2022-10-03T10:27:20.803Z,3.00
2022-10-03T10:30:12.129Z,3.00
2022-10-03T10:33:00.031Z,3.00
2022-10-03T10:35:47.076Z,3.00
2022-10-03T10:38:35.697Z,2.00
2022-10-03T10:41:20.750Z,3.00
2022-10-03T10:44:09.290Z,3.00
2022-10-03T10:47:10.168Z,3.00
2022-10-03T10:49:49.165Z,3.00
2022-10-03T10:52:51.598Z,2.00
2022-10-03T10:56:09.260Z,2.33
2022-10-03T10:58:49.264Z,3.00
2022-10-03T11:01:42.761Z,2.33
2022-10-03T11:04:36.934Z,2.00
2022-10-03T11:07:21.984Z,3.00
2022-10-03T11:10:26.976Z,2.33
2022-10-03T11:12:53.841Z,3.00
2022-10-03T11:15:59.335Z,2.33
2022-10-03T11:18:44.843Z,3.67
2022-10-03T11:21:49.455Z,2.33
2022-10-03T11:24:29.805Z,2.33
2022-10-03T11:27:30.091Z,2.67
2022-10-03T11:30:19.672Z,2.33
2022-10-03T11:33:06.038Z,2.00
2022-10-03T11:35:44.995Z,3.00
2022-10-03T11:38:34.532Z,3.00
2022-10-03T11:41:16.118Z,3.00
2022-10-03T11:44:01.828Z,2.33
2022-10-03T11:46:50.536Z,2.00
2022-10-03T11:49:56.904Z,2.00
2022-10-03T11:52:54.205Z,2.00
2022-10-03T11:55:39.713Z,3.00
2022-10-03T11:58:32.398Z,3.00
2022-10-03T12:01:24.602Z,3.00
2022-10-03T12:04:03.824Z,2.00
2022-10-03T12:06:55.145Z,2.00
2022-10-03T12:09:43.921Z,3.00
2022-10-03T12:12:43.592Z,2.00
2022-10-03T12:15:31.673Z,2.67
2022-10-03T12:18:04.885Z,2.00
2022-10-03T12:20:35.063Z,3.00
2022-10-03T12:23:18.950Z,2.33
2022-10-03T12:25:45.898Z,2.00
2022-10-03T12:28:25.754Z,2.00
2022-10-03T12:31:17.066Z,2.00
2022-10-03T12:34:30.184Z,2.00
2022-10-03T12:37:11.024Z,2.33
2022-10-03T12:39:50.513Z,2.00
2022-10-03T12:42:26.999Z,2.67
2022-10-03T12:45:12.757Z,2.00
2022-10-03T12:47:56.403Z,2.67
2022-10-03T12:50:45.417Z,2.00
2022-10-03T12:53:18.191Z,2.00
2022-10-03T12:56:00.982Z,3.00
2022-10-03T12:58:42.811Z,2.00
2022-10-03T13:01:09.687Z,3.00
2022-10-03T13:03:50.917Z,2.00
2022-10-03T13:06:51.138Z,2.00
2022-10-03T13:09:16.654Z,2.67
2022-10-03T13:11:58.523Z,2.00
2022-10-03T13:14:43.747Z,2.00
2022-10-03T13:17:23.147Z,2.00
2022-10-03T13:20:00.206Z,2.00
2022-10-03T13:22:36.377Z,1.00
2022-10-03T13:25:12.432Z,2.00
2022-10-03T13:28:19.405Z,2.00
2022-10-03T13:31:24.755Z,1.00
2022-10-03T13:33:53.105Z,2.00
2022-10-03T13:36:30.403Z,2.33
2022-10-03T13:39:05.427Z,2.00
2022-10-03T13:41:38.263Z,2.00
2022-10-03T13:44:20.602Z,1.00
2022-10-03T13:46:53.694Z,2.00
2022-10-03T13:50:29.327Z,2.00
2022-10-03T13:53:08.777Z,2.00
2022-10-03T13:55:35.659Z,3.00
2022-10-03T13:58:20.530Z,1.33
2022-10-03T14:01:07.768Z,2.00
2022-10-03T14:04:11.863Z,1.33
2022-10-03T14:07:11.905Z,3.00
2022-10-03T14:10:01.653Z,2.00
2022-10-03T14:13:06.424Z,2.00
2022-10-03T14:15:45.119Z,2.00
2022-10-03T14:18:24.472Z,2.67
2022-10-03T14:21:13.074Z,0.67
2022-10-03T14:24:24.812Z,2.67
2022-10-03T14:27:16.672Z,2.33
2022-10-03T14:30:02.012Z,2.00
2022-10-03T14:32:47.166Z,1.33
2022-10-03T14:35:46.479Z,2.67
2022-10-03T14:38:54.527Z,1.67
2022-10-03T14:41:26.199Z,3.00
2022-10-03T14:43:58.221Z,3.00
2022-10-03T14:46:27.260Z,2.00
2022-10-03T14:49:03.574Z,2.00
2022-10-03T14:51:33.287Z,2.00
2022-10-03T14:54:03.450Z,6.00
2022-10-03T14:56:32.952Z,17.75
2022-10-03T14:59:02.242Z,19.50
2022-10-03T15:01:29.214Z,22.00
2022-10-03T15:04:12.191Z,23.00
2022-10-03T15:06:45.173Z,23.00
2022-10-03T15:09:18.347Z,23.00
2022-10-03T15:12:05.002Z,24.00
2022-10-03T15:14:35.024Z,23.00
2022-10-03T15:17:04.383Z,23.25
2022-10-03T15:19:44.426Z,23.00
2022-10-03T15:22:26.822Z,23.00
2022-10-03T15:24:54.451Z,22.00
2022-10-03T15:27:22.546Z,23.00
2022-10-03T15:29:57.920Z,23.25
2022-10-03T15:32:33.240Z,23.00
2022-10-03T15:35:01.405Z,22.50
2022-10-03T15:37:44.035Z,24.00
2022-10-03T15:40:39.377Z,22.25
2022-10-03T15:43:33.705Z,20.75
2022-10-03T15:46:03.199Z,20.00
2022-10-03T15:48:31.455Z,20.25
2022-10-03T15:50:59.090Z,22.00
2022-10-03T15:53:37.730Z,22.00
2022-10-03T15:56:24.307Z,22.75
2022-10-03T15:58:55.494Z,19.50
2022-10-03T16:01:23.762Z,20.25
2022-10-03T16:03:54.618Z,20.25
2022-10-03T16:06:49.597Z,22.25
2022-10-03T16:09:32.530Z,20.75
2022-10-03T16:12:10.840Z,22.00
2022-10-03T16:14:47.480Z,22.00
2022-10-03T16:17:35.549Z,20.25
2022-10-03T16:20:20.814Z,20.25
2022-10-03T16:22:52.912Z,22.25
2022-10-03T16:25:40.624Z,21.50
2022-10-03T16:28:08.849Z,22.25
2022-10-03T16:30:43.034Z,19.50
2022-10-03T16:33:09.873Z,20.00
2022-10-03T16:35:53.438Z,20.25
2022-10-03T16:38:44.227Z,20.00
2022-10-03T16:41:14.247Z,19.00
2022-10-03T16:43:41.408Z,20.00
2022-10-03T16:46:15.268Z,19.00
2022-10-03T16:49:01.091Z,17.25
2022-10-03T16:51:35.634Z,20.00
2022-10-03T16:54:03.901Z,19.75
2022-10-03T16:56:33.956Z,17.25
2022-10-03T16:59:25.912Z,17.00
2022-10-03T17:01:57.431Z,19.50
2022-10-03T17:04:33.844Z,18.25
2022-10-03T17:07:01.886Z,22.25
2022-10-03T17:09:41.835Z,20.50
2022-10-03T17:12:14.962Z,37.00
2022-10-03T17:14:45.088Z,41.75
2022-10-03T17:17:18.132Z,37.75
2022-10-03T17:19:46.476Z,34.50
2022-10-03T17:22:20.918Z,35.00
2022-10-03T17:25:07.228Z,33.00
2022-10-03T17:27:40.860Z,31.75
2022-10-03T17:30:27.778Z,28.25
2022-10-03T17:33:12.283Z,27.75
2022-10-03T17:35:44.975Z,27.25
2022-10-03T17:38:49.031Z,25.00
2022-10-03T17:41:24.698Z,24.50
2022-10-03T17:43:57.621Z,23.25
2022-10-03T17:46:50.870Z,22.25
2022-10-03T17:49:20.824Z,21.50
2022-10-03T17:51:50.254Z,24.00
2022-10-03T17:54:21.563Z,24.00
2022-10-03T17:56:58.154Z,22.00
2022-10-03T17:59:30.318Z,22.00
2022-10-03T18:01:59.987Z,22.25
2022-10-03T18:04:34.968Z,20.50
2022-10-03T18:07:18.709Z,22.25
2022-10-03T18:09:49.799Z,20.50
2022-10-03T18:12:40.091Z,21.75
2022-10-03T18:15:06.956Z,20.25
2022-10-03T18:18:02.117Z,20.00
2022-10-03T18:20:42.535Z,21.25
2022-10-03T18:23:12.376Z,20.00
2022-10-03T18:29:11.764Z,20.75
2022-10-03T18:31:45.536Z,20.00
2022-10-03T18:34:48.054Z,20.50
2022-10-03T18:37:27.141Z,20.00
2022-10-03T18:39:57.412Z,20.00
2022-10-03T18:42:28.474Z,21.75
2022-10-03T18:44:59.991Z,20.00
2022-10-03T18:47:34.354Z,20.75
2022-10-03T18:50:30.183Z,18.00
2022-10-03T18:53:35.569Z,21.00
2022-10-03T18:56:06.477Z,19.25
2022-10-03T18:58:37.201Z,20.75
2022-10-03T19:01:19.518Z,22.00
2022-10-03T19:03:59.300Z,20.00
2022-10-03T19:06:32.328Z,20.50
2022-10-03T19:09:54.893Z,20.00
2022-10-03T19:12:22.167Z,20.50
2022-10-03T19:15:16.885Z,22.00
2022-10-03T19:18:07.973Z,20.50
2022-10-03T19:20:38.514Z,20.25
2022-10-03T19:23:07.976Z,21.25
2022-10-03T19:25:37.610Z,19.25
2022-10-03T19:28:18.477Z,20.00
2022-10-03T19:30:46.405Z,19.50
2022-10-03T19:33:17.454Z,20.00
2022-10-03T19:35:47.744Z,21.50
2022-10-03T19:38:28.945Z,19.00
2022-10-03T19:41:23.515Z,20.00
2022-10-03T19:43:50.575Z,19.75
2022-10-03T19:46:26.439Z,20.00
2022-10-03T19:49:02.278Z,19.75
2022-10-03T19:51:29.224Z,19.50
2022-10-03T19:54:00.085Z,19.00
2022-10-03T19:56:30.695Z,18.50
2022-10-03T19:59:14.225Z,19.00
2022-10-03T20:09:28.584Z,18.00
2022-10-03T20:12:09.103Z,20.00
2022-10-03T20:14:37.214Z,18.00
2022-10-03T20:17:15.614Z,15.25
2022-10-03T20:19:54.559Z,18.75
2022-10-03T20:22:22.877Z,19.00
2022-10-03T20:24:49.910Z,18.25
2022-10-03T20:27:42.825Z,17.00
2022-10-03T20:30:37.655Z,17.00
2022-10-03T20:33:04.578Z,16.00
2022-10-03T20:35:42.487Z,16.25
2022-10-03T20:38:41.393Z,14.75
2022-10-03T20:41:17.381Z,17.00
2022-10-03T20:44:03.981Z,17.00
2022-10-03T20:46:54.464Z,16.00
2022-10-03T20:49:31.808Z,16.25
2022-10-03T20:52:04.063Z,15.00
2022-10-03T20:54:37.348Z,13.75
2022-10-03T20:57:05.674Z,16.50
2022-10-03T20:59:39.567Z,16.75
2022-10-03T21:02:27.117Z,15.00
2022-10-03T21:04:57.619Z,15.00
2022-10-03T21:07:43.602Z,15.00
2022-10-03T21:10:29.898Z,16.00
2022-10-03T21:13:09.487Z,15.25
2022-10-03T21:15:53.877Z,15.75
2022-10-03T21:18:28.745Z,16.00
2022-10-03T21:21:08.569Z,14.25
2022-10-03T21:23:39.207Z,14.50
2022-10-03T21:26:06.985Z,14.75
2022-10-03T21:28:35.872Z,16.00
2022-10-03T21:31:09.883Z,13.75
2022-10-03T21:33:58.461Z,14.00
2022-10-03T21:36:45.029Z,14.00
2022-10-03T21:39:17.679Z,14.50
2022-10-03T21:42:01.024Z,14.00
2022-10-03T21:44:39.685Z,13.25
2022-10-03T21:47:28.463Z,13.00
2022-10-03T21:49:58.000Z,12.50
2022-10-03T21:52:36.563Z,11.00
2022-10-03T21:55:07.019Z,12.50
2022-10-03T21:57:52.524Z,13.75
2022-10-03T22:00:20.346Z,12.50
2022-10-03T22:02:53.531Z,13.25
2022-10-03T22:05:44.744Z,13.50
2022-10-03T22:08:20.508Z,13.00
2022-10-03T22:11:11.794Z,15.00
2022-10-03T22:13:40.405Z,13.00
2022-10-03T22:16:18.599Z,12.25
2022-10-03T22:19:08.039Z,12.75
2022-10-03T22:21:52.244Z,13.75
2022-10-03T22:24:28.690Z,12.25
2022-10-03T22:27:07.758Z,12.75
2022-10-03T22:29:39.880Z,11.00
2022-10-03T22:32:34.963Z,13.50
2022-10-03T22:35:13.781Z,12.00
2022-10-03T22:37:41.170Z,13.00
2022-10-03T22:40:09.012Z,13.00
2022-10-03T22:42:40.780Z,10.75
2022-10-03T22:45:08.043Z,11.00
2022-10-03T22:47:35.045Z,13.00
2022-10-03T22:50:04.234Z,12.00
2022-10-03T22:52:34.095Z,10.50
2022-10-03T22:55:01.020Z,11.25
2022-10-03T22:57:27.978Z,12.25
2022-10-03T23:00:08.153Z,10.00
2022-10-03T23:02:37.688Z,11.00
2022-10-03T23:05:06.791Z,11.25
2022-10-03T23:07:39.425Z,12.00
2022-10-03T23:10:21.667Z,11.00
2022-10-03T23:12:53.733Z,10.25
2022-10-03T23:15:20.697Z,10.75
2022-10-03T23:17:59.845Z,8.00
2022-10-03T23:20:49.207Z,10.25
2022-10-03T23:23:22.890Z,10.75
2022-10-03T23:26:04.583Z,10.50
2022-10-03T23:28:44.297Z,10.75
2022-10-03T23:31:34.865Z,11.00
2022-10-03T23:34:02.062Z,11.00
2022-10-03T23:36:28.949Z,11.00
2022-10-03T23:38:59.892Z,9.50
2022-10-03T23:41:50.967Z,10.25
2022-10-03T23:44:37.504Z,11.00
2022-10-03T23:47:05.355Z,10.00
2022-10-03T23:49:33.422Z,9.25
2022-10-03T23:52:00.446Z,10.00
2022-10-03T23:54:27.396Z,8.75
2022-10-03T23:57:00.271Z,10.00
2022-10-03T23:59:27.794Z,9.50
